createdAt,value
2019-03-01T00:00:57.537Z,12.96
2019-03-01T00:03:28.070Z,12.95
2019-03-01T00:06:37.193Z,13.01
2019-03-01T00:09:46.878Z,13.05
2019-03-01T00:12:51.636Z,13.19
2019-03-01T00:15:35.502Z,13.22
2019-03-01T00:18:16.446Z,13.23
2019-03-01T00:21:10.433Z,13.26
2019-03-01T00:23:55.816Z,13.29
2019-03-01T00:27:22.267Z,13.23
2019-03-01T00:30:22.389Z,13.27
2019-03-01T00:33:00.371Z,13.26
2019-03-01T00:35:57.944Z,13.21
2019-03-01T00:39:05.912Z,13.19
2019-03-01T00:42:12.743Z,13.21
2019-03-01T00:44:43.697Z,13.09
2019-03-01T00:47:13.652Z,12.96
2019-03-01T00:49:43.181Z,13.03
2019-03-01T00:52:12.869Z,12.91
2019-03-01T00:54:42.477Z,12.80
2019-03-01T00:57:12.107Z,12.80
2019-03-01T00:59:41.663Z,12.86
2019-03-01T01:02:11.290Z,12.85
2019-03-01T01:04:40.834Z,12.86
2019-03-01T01:07:10.392Z,12.90
2019-03-01T01:09:39.922Z,12.95
2019-03-01T01:12:10.250Z,12.97
2019-03-01T01:14:40.852Z,13.06
2019-03-01T01:17:10.417Z,13.06
2019-03-01T01:19:40.949Z,13.03
2019-03-01T01:22:10.496Z,13.06
2019-03-01T01:24:40.224Z,13.15
2019-03-01T01:27:09.773Z,13.08
2019-03-01T01:29:39.323Z,13.13
2019-03-01T01:32:08.892Z,13.13
2019-03-01T01:34:38.468Z,13.13
2019-03-01T01:37:08.044Z,13.12
2019-03-01T01:39:37.625Z,13.16
2019-03-01T01:42:07.171Z,13.18
2019-03-01T01:44:36.691Z,13.16
2019-03-01T01:47:06.277Z,13.10
2019-03-01T01:49:35.812Z,13.00
2019-03-01T01:52:05.410Z,12.99
2019-03-01T01:54:34.927Z,12.96
2019-03-01T01:57:04.449Z,13.04
2019-03-01T01:59:33.963Z,13.02
2019-03-01T02:02:03.480Z,13.06
2019-03-01T02:04:33.985Z,13.05
2019-03-01T02:07:03.528Z,13.10
2019-03-01T02:09:33.062Z,13.10
2019-03-01T02:12:02.598Z,13.09
2019-03-01T02:14:32.129Z,13.09
2019-03-01T02:17:01.659Z,13.15
2019-03-01T02:19:31.173Z,13.08
2019-03-01T02:22:01.677Z,13.12
2019-03-01T02:24:31.198Z,13.18
2019-03-01T02:27:26.315Z,13.10
2019-03-01T02:30:05.039Z,13.10
2019-03-01T02:32:45.249Z,13.09
2019-03-01T02:35:25.639Z,13.08
2019-03-01T02:37:55.152Z,13.10
2019-03-01T02:40:24.691Z,13.16
2019-03-01T02:42:54.213Z,13.20
2019-03-01T02:45:23.812Z,13.24
2019-03-01T02:47:53.340Z,13.18
2019-03-01T02:50:22.940Z,13.15
2019-03-01T02:52:52.468Z,13.18
2019-03-01T02:55:22.261Z,13.14
2019-03-01T02:57:51.795Z,12.99
2019-03-01T03:00:23.090Z,12.89
2019-03-01T03:02:52.641Z,12.88
2019-03-01T03:05:22.202Z,13.00
2019-03-01T03:07:56.535Z,12.89
2019-03-01T03:10:26.129Z,12.89
2019-03-01T03:13:00.883Z,12.93
2019-03-01T03:15:32.984Z,12.98
2019-03-01T03:18:03.503Z,12.91
2019-03-01T03:20:33.020Z,12.93
2019-03-01T03:23:02.557Z,12.89
2019-03-01T03:25:32.065Z,12.85
2019-03-01T03:28:01.597Z,12.87
2019-03-01T03:30:31.137Z,12.91
2019-03-01T03:33:00.669Z,12.89
2019-03-01T03:35:30.199Z,12.90
2019-03-01T03:37:59.740Z,12.93
2019-03-01T03:40:29.293Z,12.98
2019-03-01T03:42:58.853Z,12.87
2019-03-01T03:45:28.405Z,12.89
2019-03-01T03:47:57.945Z,12.89
2019-03-01T03:50:27.466Z,12.84
2019-03-01T03:52:57.042Z,12.87
2019-03-01T03:55:26.524Z,12.83
2019-03-01T03:57:56.136Z,12.86
2019-03-01T04:00:25.735Z,12.84
2019-03-01T04:02:55.292Z,12.93
2019-03-01T04:05:24.801Z,12.93
2019-03-01T04:07:54.331Z,13.00
2019-03-01T04:10:24.850Z,12.94
2019-03-01T04:12:54.375Z,12.96
2019-03-01T04:15:23.921Z,12.91
2019-03-01T04:17:53.733Z,12.94
2019-03-01T04:20:23.256Z,12.75
2019-03-01T04:22:52.789Z,12.90
2019-03-01T04:25:22.336Z,12.97
2019-03-01T04:27:53.413Z,12.93
2019-03-01T04:30:24.393Z,12.95
2019-03-01T04:32:53.956Z,12.88
2019-03-01T04:35:23.486Z,12.92
2019-03-01T04:37:53.093Z,12.92
2019-03-01T04:40:22.704Z,12.92
2019-03-01T04:42:52.223Z,12.99
2019-03-01T04:45:21.770Z,12.95
2019-03-01T04:47:51.336Z,12.99
2019-03-01T04:50:20.871Z,13.04
2019-03-01T04:52:50.427Z,13.05
2019-03-01T04:55:22.359Z,12.99
2019-03-01T04:57:51.889Z,12.96
2019-03-01T05:00:22.899Z,12.93
2019-03-01T05:02:52.442Z,12.88
2019-03-01T05:05:21.989Z,12.93
2019-03-01T05:07:51.520Z,12.91
2019-03-01T05:10:21.068Z,12.90
2019-03-01T05:12:50.589Z,12.89
2019-03-01T05:15:21.495Z,12.90
2019-03-01T05:17:51.189Z,12.91
2019-03-01T05:20:20.728Z,12.88
2019-03-01T05:22:50.371Z,12.94
2019-03-01T05:25:19.923Z,12.82
2019-03-01T05:27:49.446Z,12.88
2019-03-01T05:30:19.068Z,12.85
2019-03-01T05:32:48.628Z,12.91
2019-03-01T05:35:18.219Z,12.86
2019-03-01T05:37:47.756Z,12.77
2019-03-01T05:40:17.376Z,12.78
2019-03-01T05:42:46.946Z,12.69
2019-03-01T05:45:19.042Z,12.63
2019-03-01T05:47:48.555Z,12.70
2019-03-01T05:50:18.079Z,12.69
2019-03-01T05:52:47.636Z,12.78
2019-03-01T05:55:17.412Z,12.78
2019-03-01T05:58:23.337Z,12.86
2019-03-01T06:00:53.204Z,12.93
2019-03-01T06:03:52.313Z,12.91
2019-03-01T06:06:27.158Z,12.86
2019-03-01T06:09:35.062Z,12.87
2019-03-01T06:12:30.481Z,12.90
2019-03-01T06:15:36.090Z,12.91
2019-03-01T06:18:58.534Z,12.97
2019-03-01T06:22:10.067Z,12.99
2019-03-01T06:25:20.629Z,12.91
2019-03-01T06:28:20.854Z,12.90
2019-03-01T06:31:11.180Z,12.87
2019-03-01T06:34:05.654Z,12.85
2019-03-01T06:36:58.383Z,12.90
2019-03-01T06:39:55.205Z,12.91
2019-03-01T06:43:09.222Z,12.84
2019-03-01T06:46:08.582Z,12.86
2019-03-01T06:48:44.816Z,12.86
2019-03-01T06:51:28.615Z,12.90
2019-03-01T06:53:52.581Z,12.84
2019-03-01T06:56:22.117Z,12.83
2019-03-01T06:58:55.000Z,12.86
2019-03-01T07:01:30.027Z,12.79
2019-03-01T07:04:08.264Z,12.74
2019-03-01T07:06:37.822Z,12.72
2019-03-01T07:09:07.448Z,12.76
2019-03-01T07:11:37.148Z,12.77
2019-03-01T07:14:06.791Z,12.66
2019-03-01T07:16:36.357Z,12.71
2019-03-01T07:19:05.921Z,12.76
2019-03-01T07:21:37.302Z,12.80
2019-03-01T07:24:06.902Z,12.80
2019-03-01T07:26:36.471Z,12.82
2019-03-01T07:29:06.009Z,12.76
2019-03-01T07:31:35.547Z,12.70
2019-03-01T07:34:05.090Z,12.73
2019-03-01T07:36:35.263Z,12.79
2019-03-01T07:39:06.444Z,12.64
2019-03-01T07:41:36.046Z,12.63
2019-03-01T07:44:05.682Z,12.64
2019-03-01T07:46:35.208Z,12.69
2019-03-01T07:49:05.010Z,12.72
2019-03-01T07:51:36.004Z,12.75
2019-03-01T07:54:05.719Z,12.79
2019-03-01T07:56:37.041Z,12.78
2019-03-01T07:59:06.509Z,12.84
2019-03-01T08:01:36.061Z,12.85
2019-03-01T08:04:06.582Z,12.79
2019-03-01T08:06:36.163Z,12.72
2019-03-01T08:09:11.685Z,12.75
2019-03-01T08:11:41.269Z,12.68
2019-03-01T08:14:10.852Z,12.65
2019-03-01T08:16:40.409Z,12.62
2019-03-01T08:19:09.956Z,12.63
2019-03-01T08:21:42.639Z,12.69
2019-03-01T08:24:11.852Z,12.65
2019-03-01T08:26:41.543Z,12.52
2019-03-01T08:29:11.094Z,12.38
2019-03-01T08:31:40.642Z,12.39
2019-03-01T08:34:10.196Z,12.28
2019-03-01T08:36:42.440Z,11.97
2019-03-01T08:39:10.969Z,11.92
2019-03-01T08:41:40.532Z,11.87
2019-03-01T08:44:10.091Z,12.02
2019-03-01T08:46:41.970Z,12.19
2019-03-01T08:49:11.510Z,12.23
2019-03-01T08:51:41.195Z,12.12
2019-03-01T08:54:10.764Z,12.01
2019-03-01T08:56:40.310Z,12.05
2019-03-01T08:59:09.857Z,12.17
2019-03-01T09:01:41.820Z,12.26
2019-03-01T09:04:14.171Z,12.25
2019-03-01T09:06:44.076Z,12.38
2019-03-01T09:09:13.671Z,12.41
2019-03-01T09:11:44.775Z,12.49
2019-03-01T09:14:15.448Z,12.54
2019-03-01T09:16:45.066Z,12.41
2019-03-01T09:19:14.548Z,12.38
2019-03-01T09:21:44.711Z,11.64
2019-03-01T09:24:15.352Z,11.65
2019-03-01T09:26:44.905Z,11.35
2019-03-01T09:29:18.601Z,11.30
2019-03-01T09:31:45.697Z,10.87
2019-03-01T09:34:15.232Z,10.71
2019-03-01T09:36:47.536Z,10.55
2019-03-01T09:39:18.119Z,10.34
2019-03-01T09:41:48.345Z,10.16
2019-03-01T09:44:17.908Z,10.21
2019-03-01T09:46:47.475Z,10.19
2019-03-01T09:49:17.030Z,10.02
2019-03-01T09:51:49.185Z,9.71
2019-03-01T09:54:17.816Z,9.47
2019-03-01T09:56:47.379Z,9.49
2019-03-01T09:59:16.907Z,9.49
2019-03-01T10:01:46.461Z,9.28
2019-03-01T10:04:15.992Z,9.25
2019-03-01T10:06:45.540Z,9.12
2019-03-01T10:09:15.087Z,9.25
2019-03-01T10:11:44.637Z,9.41
2019-03-01T10:14:14.439Z,9.35
2019-03-01T10:16:44.044Z,9.40
2019-03-01T10:19:13.709Z,9.57
2019-03-01T10:21:43.239Z,9.52
2019-03-01T10:24:12.765Z,9.60
2019-03-01T10:26:42.298Z,9.36
2019-03-01T10:29:11.839Z,9.39
2019-03-01T10:31:41.389Z,9.18
2019-03-01T10:34:10.922Z,9.37
2019-03-01T10:36:40.493Z,9.56
2019-03-01T10:39:14.076Z,9.45
2019-03-01T10:41:43.620Z,9.40
2019-03-01T10:44:13.172Z,9.46
2019-03-01T10:46:42.741Z,9.37
2019-03-01T10:49:12.266Z,9.39
2019-03-01T10:51:42.129Z,9.10
2019-03-01T10:54:11.664Z,9.24
2019-03-01T10:56:41.196Z,9.47
2019-03-01T10:59:10.790Z,9.63
2019-03-01T11:01:40.417Z,9.88
2019-03-01T11:04:09.947Z,9.87
2019-03-01T11:06:39.483Z,9.83
2019-03-01T11:09:09.031Z,9.83
2019-03-01T11:11:38.640Z,9.73
2019-03-01T11:14:09.166Z,9.84
2019-03-01T11:16:38.770Z,9.90
2019-03-01T11:19:08.272Z,9.91
2019-03-01T11:21:38.706Z,9.64
2019-03-01T11:24:08.283Z,9.29
2019-03-01T11:26:37.836Z,9.47
2019-03-01T11:29:07.413Z,9.50
2019-03-01T11:31:36.971Z,9.60
2019-03-01T11:34:06.595Z,9.53
2019-03-01T11:36:36.151Z,9.70
2019-03-01T11:39:06.847Z,9.23
2019-03-01T11:41:37.617Z,9.24
2019-03-01T11:44:07.233Z,9.41
2019-03-01T11:46:36.841Z,9.68
2019-03-01T11:49:06.374Z,9.80
2019-03-01T11:51:36.757Z,9.80
2019-03-01T11:54:07.381Z,9.85
2019-03-01T11:56:36.885Z,9.79
2019-03-01T11:59:06.449Z,9.82
2019-03-01T12:01:35.973Z,9.65
2019-03-01T12:04:05.518Z,9.55
2019-03-01T12:06:35.036Z,9.57
2019-03-01T12:09:06.012Z,9.41
2019-03-01T12:11:36.196Z,9.32
2019-03-01T12:14:05.806Z,9.27
2019-03-01T12:16:35.334Z,9.27
2019-03-01T12:19:04.883Z,9.36
2019-03-01T12:21:34.514Z,9.12
2019-03-01T12:24:05.058Z,8.88
2019-03-01T12:26:34.614Z,8.48
2019-03-01T12:29:04.163Z,8.75
2019-03-01T12:31:33.692Z,8.67
2019-03-01T12:34:03.231Z,8.65
2019-03-01T12:36:32.769Z,8.59
2019-03-01T12:39:02.302Z,8.54
2019-03-01T12:41:33.478Z,8.45
2019-03-01T12:44:03.023Z,8.68
2019-03-01T12:46:32.546Z,8.63
2019-03-01T12:49:02.067Z,8.61
2019-03-01T12:51:32.613Z,8.50
2019-03-01T12:54:02.472Z,8.18
2019-03-01T12:56:32.213Z,8.52
2019-03-01T12:59:01.756Z,8.37
2019-03-01T13:01:32.891Z,8.39
2019-03-01T13:04:03.163Z,8.26
2019-03-01T13:06:35.457Z,8.48
2019-03-01T13:09:04.325Z,8.28
2019-03-01T13:11:35.622Z,8.57
2019-03-01T13:14:05.147Z,8.62
2019-03-01T13:16:34.671Z,8.73
2019-03-01T13:19:04.242Z,9.01
2019-03-01T13:21:33.835Z,9.17
2019-03-01T13:24:03.379Z,8.90
2019-03-01T13:26:37.682Z,9.03
2019-03-01T13:29:05.805Z,9.04
2019-03-01T13:31:35.354Z,8.82
2019-03-01T13:34:04.903Z,9.04
2019-03-01T13:36:36.124Z,9.19
2019-03-01T13:39:07.782Z,9.25
2019-03-01T13:41:38.033Z,9.18
2019-03-01T13:44:07.624Z,9.14
2019-03-01T13:46:37.133Z,8.92
2019-03-01T13:49:06.672Z,9.12
2019-03-01T13:51:37.182Z,9.25
2019-03-01T13:54:09.005Z,8.93
2019-03-01T13:56:38.893Z,8.87
2019-03-01T13:59:08.480Z,8.83
2019-03-01T14:01:38.014Z,8.99
2019-03-01T14:04:09.503Z,8.79
2019-03-01T14:06:40.379Z,8.70
2019-03-01T14:09:14.166Z,8.55
2019-03-01T14:11:43.706Z,8.75
2019-03-01T14:14:13.232Z,8.45
2019-03-01T14:16:42.759Z,8.41
2019-03-01T14:19:12.292Z,8.59
2019-03-01T14:21:42.815Z,8.62
2019-03-01T14:24:13.322Z,8.47
2019-03-01T14:26:42.858Z,8.59
2019-03-01T14:29:12.879Z,8.59
2019-03-01T14:31:42.988Z,8.84
2019-03-01T14:34:13.298Z,8.90
2019-03-01T14:36:43.277Z,8.88
2019-03-01T14:39:17.664Z,8.67
2019-03-01T14:41:47.275Z,8.55
2019-03-01T14:44:16.828Z,8.70
2019-03-01T14:46:47.273Z,8.85
2019-03-01T14:49:18.553Z,8.74
2019-03-01T14:51:48.062Z,8.97
2019-03-01T14:54:21.192Z,9.12
2019-03-01T14:56:55.560Z,9.12
2019-03-01T14:59:40.124Z,9.27
2019-03-01T15:02:24.373Z,9.31
2019-03-01T15:04:54.400Z,9.27
2019-03-01T15:07:24.020Z,9.31
2019-03-01T15:09:57.014Z,9.49
2019-03-01T15:12:24.864Z,9.61
2019-03-01T15:14:54.475Z,9.70
2019-03-01T15:17:23.984Z,9.65
2019-03-01T15:19:53.590Z,9.65
2019-03-01T15:22:23.123Z,9.57
2019-03-01T15:24:52.655Z,9.64
2019-03-01T15:27:22.187Z,9.66
2019-03-01T15:29:51.717Z,9.69
2019-03-01T15:32:21.822Z,9.64
2019-03-01T15:34:51.350Z,9.65
2019-03-01T15:37:20.856Z,9.69
2019-03-01T15:39:51.329Z,9.87
2019-03-01T15:42:22.809Z,9.72
2019-03-01T15:44:52.328Z,9.66
2019-03-01T15:47:23.807Z,9.77
2019-03-01T15:49:53.080Z,9.72
2019-03-01T15:52:22.604Z,9.80
2019-03-01T15:54:52.193Z,9.71
2019-03-01T15:57:21.717Z,9.67
2019-03-01T15:59:51.237Z,9.69
2019-03-01T16:02:20.756Z,9.61
2019-03-01T16:04:50.289Z,9.65
2019-03-01T16:07:20.793Z,9.49
2019-03-01T16:09:50.323Z,9.62
2019-03-01T16:12:19.842Z,9.60
2019-03-01T16:14:49.392Z,9.52
2019-03-01T16:17:21.925Z,9.37
2019-03-01T16:19:53.288Z,9.39
2019-03-01T16:22:21.365Z,9.22
2019-03-01T16:24:50.887Z,9.41
2019-03-01T16:27:20.421Z,9.46
2019-03-01T16:29:49.964Z,9.38
2019-03-01T16:32:19.516Z,9.46
2019-03-01T16:34:49.274Z,9.54
2019-03-01T16:37:18.821Z,9.65
2019-03-01T16:39:48.373Z,9.63
2019-03-01T16:42:18.827Z,9.60
2019-03-01T16:44:48.504Z,9.50
2019-03-01T16:47:18.024Z,9.56
2019-03-01T16:49:47.552Z,9.62
2019-03-01T16:52:17.082Z,9.74
2019-03-01T16:54:47.616Z,9.84
2019-03-01T16:57:18.644Z,9.90
2019-03-01T16:59:48.276Z,9.99
2019-03-01T17:02:17.813Z,9.95
2019-03-01T17:04:47.349Z,9.94
2019-03-01T17:07:16.884Z,9.98
2019-03-01T17:09:47.272Z,10.02
2019-03-01T17:12:17.654Z,10.00
2019-03-01T17:14:48.121Z,9.97
2019-03-01T17:17:17.654Z,9.95
2019-03-01T17:19:47.201Z,9.99
2019-03-01T17:22:16.732Z,10.06
2019-03-01T17:24:48.311Z,10.05
2019-03-01T17:27:17.510Z,10.07
2019-03-01T17:29:47.057Z,10.06
2019-03-01T17:32:16.612Z,10.05
2019-03-01T17:34:46.146Z,10.00
2019-03-01T17:37:15.892Z,9.93
2019-03-01T17:39:45.442Z,9.92
2019-03-01T17:42:17.520Z,9.71
2019-03-01T17:44:46.202Z,9.70
2019-03-01T17:47:16.210Z,9.72
2019-03-01T17:49:45.740Z,9.67
2019-03-01T17:52:15.285Z,9.72
2019-03-01T17:54:44.825Z,9.62
2019-03-01T17:57:14.357Z,9.59
2019-03-01T17:59:44.594Z,9.62
2019-03-01T18:02:15.812Z,9.58
2019-03-01T18:04:45.387Z,9.54
2019-03-01T18:07:14.952Z,9.47
2019-03-01T18:09:45.259Z,9.38
2019-03-01T18:12:17.413Z,9.31
2019-03-01T18:14:46.995Z,9.33
2019-03-01T18:17:16.525Z,9.35
2019-03-01T18:19:46.036Z,9.24
2019-03-01T18:22:15.580Z,9.13
2019-03-01T18:24:46.740Z,9.23
2019-03-01T18:27:17.930Z,9.20
2019-03-01T18:29:47.537Z,9.05
2019-03-01T18:32:17.257Z,9.13
2019-03-01T18:34:46.768Z,9.01
2019-03-01T18:37:19.350Z,9.04
2019-03-01T18:39:47.520Z,9.03
2019-03-01T18:42:17.053Z,9.06
2019-03-01T18:44:46.577Z,9.06
2019-03-01T18:47:16.139Z,9.02
2019-03-01T18:49:46.649Z,9.16
2019-03-01T18:52:17.663Z,9.04
2019-03-01T18:54:47.412Z,9.10
2019-03-01T18:57:16.949Z,9.01
2019-03-01T18:59:46.471Z,9.05
2019-03-01T19:02:15.985Z,8.91
2019-03-01T19:04:45.583Z,8.99
2019-03-01T19:07:15.103Z,8.90
2019-03-01T19:09:44.644Z,8.92
2019-03-01T19:12:14.257Z,8.82
2019-03-01T19:14:43.771Z,8.95
2019-03-01T19:17:13.305Z,8.90
2019-03-01T19:19:42.832Z,9.04
2019-03-01T19:22:12.341Z,9.12
2019-03-01T19:24:43.282Z,9.12
2019-03-01T19:27:15.515Z,9.16
2019-03-01T19:29:44.416Z,9.17
2019-03-01T19:32:13.974Z,9.22
2019-03-01T19:34:43.517Z,9.26
2019-03-01T19:37:14.353Z,9.18
2019-03-01T19:39:44.090Z,9.21
2019-03-01T19:42:14.680Z,9.35
2019-03-01T19:44:44.206Z,9.43
2019-03-01T19:47:13.733Z,9.20
2019-03-01T19:49:45.182Z,9.23
2019-03-01T19:52:16.326Z,9.17
2019-03-01T19:54:45.864Z,9.13
2019-03-01T19:57:15.399Z,9.01
2019-03-01T19:59:46.516Z,8.93
2019-03-01T20:02:16.160Z,9.01
2019-03-01T20:04:45.713Z,9.14
2019-03-01T20:07:15.985Z,9.08
2019-03-01T20:09:46.487Z,9.13
2019-03-01T20:12:16.037Z,9.12
2019-03-01T20:14:45.622Z,9.05
2019-03-01T20:17:15.210Z,8.88
2019-03-01T20:19:44.754Z,8.92
2019-03-01T20:22:15.410Z,9.07
2019-03-01T20:24:45.661Z,9.17
2019-03-01T20:27:15.182Z,9.24
2019-03-01T20:29:44.720Z,9.10
2019-03-01T20:32:15.704Z,9.12
2019-03-01T20:34:46.085Z,8.95
2019-03-01T20:37:15.635Z,8.89
2019-03-01T20:39:47.500Z,8.96
2019-03-01T20:42:17.687Z,9.00
2019-03-01T20:44:50.263Z,8.97
2019-03-01T20:47:19.457Z,9.06
2019-03-01T20:49:49.081Z,9.06
2019-03-01T20:52:18.694Z,9.09
2019-03-01T20:54:48.235Z,9.04
2019-03-01T20:57:17.772Z,8.92
2019-03-01T20:59:50.552Z,8.89
2019-03-01T21:02:18.603Z,8.94
2019-03-01T21:04:53.311Z,8.79
2019-03-01T21:07:19.367Z,8.90
2019-03-01T21:09:49.869Z,8.88
2019-03-01T21:12:19.383Z,9.03
2019-03-01T21:14:48.922Z,9.10
2019-03-01T21:17:20.375Z,9.05
2019-03-01T21:19:49.695Z,8.99
2019-03-01T21:22:19.234Z,9.08
2019-03-01T21:24:48.785Z,9.01
2019-03-01T21:27:18.290Z,8.95
2019-03-01T21:29:48.384Z,8.94
2019-03-01T21:32:17.909Z,9.01
2019-03-01T21:34:47.437Z,9.06
2019-03-01T21:37:16.964Z,9.15
2019-03-01T21:39:47.471Z,9.21
2019-03-01T21:42:20.214Z,9.28
2019-03-01T21:44:48.235Z,9.25
2019-03-01T21:47:17.766Z,9.17
2019-03-01T21:49:47.297Z,9.18
2019-03-01T21:52:16.827Z,9.18
2019-03-01T21:54:48.654Z,9.25
2019-03-01T21:57:17.568Z,9.18
2019-03-01T21:59:49.701Z,9.13
2019-03-01T22:02:18.342Z,9.11
2019-03-01T22:04:47.865Z,9.15
2019-03-01T22:07:18.082Z,9.13
2019-03-01T22:09:47.613Z,9.04
2019-03-01T22:12:17.132Z,9.01
2019-03-01T22:14:49.083Z,9.06
2019-03-01T22:17:17.872Z,9.17
2019-03-01T22:19:47.431Z,9.06
2019-03-01T22:22:16.979Z,9.12
2019-03-01T22:24:46.545Z,9.16
2019-03-01T22:27:16.071Z,9.07
2019-03-01T22:29:47.170Z,9.10
2019-03-01T22:32:16.898Z,9.05
2019-03-01T22:34:46.433Z,9.01
2019-03-01T22:37:15.988Z,9.00
2019-03-01T22:39:48.415Z,8.88
2019-03-01T22:42:16.726Z,8.84
2019-03-01T22:44:46.268Z,8.89
2019-03-01T22:47:15.795Z,8.73
2019-03-01T22:49:45.322Z,8.82
2019-03-01T22:52:14.859Z,8.82
2019-03-01T22:54:44.395Z,8.85
2019-03-01T22:57:13.919Z,9.00
2019-03-01T22:59:43.731Z,8.91
2019-03-01T23:02:17.158Z,8.69
2019-03-01T23:04:46.766Z,8.83
2019-03-01T23:07:16.360Z,8.76
2019-03-01T23:09:46.489Z,8.78
2019-03-01T23:12:18.737Z,8.88
2019-03-01T23:14:49.029Z,8.71
2019-03-01T23:17:18.560Z,8.63
2019-03-01T23:19:51.720Z,8.71
2019-03-01T23:22:19.282Z,8.74
2019-03-01T23:24:49.474Z,8.78
2019-03-01T23:27:19.027Z,8.79
2019-03-01T23:29:50.998Z,8.55
2019-03-01T23:32:19.769Z,8.54
2019-03-01T23:34:49.298Z,8.39
2019-03-01T23:37:18.829Z,8.56
2019-03-01T23:39:48.337Z,8.43
2019-03-01T23:42:20.847Z,8.15
2019-03-01T23:44:49.151Z,8.19
2019-03-01T23:47:19.267Z,8.27
2019-03-01T23:49:48.778Z,8.40
2019-03-01T23:52:19.559Z,8.44
2019-03-01T23:54:49.530Z,8.41
2019-03-01T23:57:19.066Z,8.40
2019-03-01T23:59:48.646Z,8.55
